Flight Track Log - Related Links

Times and Time Zones

All times are in EDT time to prevent confusion due to time zone crossing. See the JZA8436 flight status page for this flight to view local times or setup timezone preferences in your user account.

Time Position Orientation Groundspeed Altitude Reporting Facility
EDT Latitude Longitude Course Direction KTS MPH feet Rate Location/Type
Mon 01:02:37 PM 51.1000 -114.0667 90° East 150 173 4,100  Level Edmonton Center
Mon 01:03:37 PM 51.1167 -114.1167 298° West 180 207 6,100 2,050 Climbing Edmonton Center
Mon 01:04:37 PM 51.1667 -114.1000 12° North 200 230 8,200 2,000 Climbing Edmonton Center
Mon 01:05:37 PM 51.1833 -114.0333 68° East 240 276 10,100 1,950 Climbing Edmonton Center
Mon 01:06:00 PM 51.0975 -113.4099 96° East  Level FlightAware Approximate
Mon 01:06:37 PM 51.1667 -113.9333 105° East 250 288 12,100  Level Edmonton Center
Mon 01:07:00 PM 51.0881 -113.2589 96° East  Level FlightAware Approximate
Mon 01:07:37 PM 51.1167 -113.8167 124° Southeast 270 311 13,500  Level Edmonton Center
Mon 01:08:00 PM 51.0833 -113.1076 90° East  Level FlightAware Approximate
Mon 01:08:37 PM 51.1000 -113.7167 105° East 290 334 15,000  Level Edmonton Center
Mon 01:09:37 PM 51.0667 -113.5667 109° East 300 345 16,100 1,250 Climbing Edmonton Center
Mon 01:10:37 PM 51.0667 -113.4333 90° East 310 357 17,500 1,200 Climbing Edmonton Center
Mon 01:11:37 PM 51.0667 -113.3000 90° East 310 357 18,500 1,100 Climbing Edmonton Center
Mon 01:12:37 PM 51.0667 -113.1667 90° East 310 357 19,700 1,200 Climbing Edmonton Center
Mon 01:13:37 PM 51.0667 -113.0333 90° East 310 357 20,900 1,150 Climbing Edmonton Center
Mon 01:14:37 PM 51.0500 -112.9000 101° East 310 357 22,000 1,100 Climbing Edmonton Center
Mon 01:15:37 PM 51.0500 -112.7500 90° East 310 357 23,100 1,000 Climbing Edmonton Center
Mon 01:16:37 PM 51.0333 -112.6167 101° East 310 357 24,000 900 Climbing Edmonton Center
Mon 01:17:37 PM 51.0333 -112.4833 90° East 310 357 24,900 500 Climbing Edmonton Center
Mon 01:18:37 PM 51.0333 -112.3500 90° East 320 368 25,000 50 Climbing Edmonton Center
Mon 01:19:37 PM 51.0167 -112.2167 101° East 320 368 25,000  Level Edmonton Center
Mon 01:20:37 PM 51.0167 -112.0500 90° East 320 368 25,000  Level Edmonton Center
Mon 01:21:37 PM 51.0000 -111.9167 101° East 320 368 25,000  Level Edmonton Center
Mon 01:22:37 PM 51.0000 -111.7833 90° East 320 368 25,000  Level Edmonton Center
Mon 01:23:37 PM 50.9833 -111.6167 99° East 320 368 25,000  Level Edmonton Center
Mon 01:24:37 PM 50.9833 -111.4833 90° East 320 368 25,000  Level Edmonton Center
Mon 01:25:37 PM 50.9667 -111.3500 101° East 320 368 25,000  Level Edmonton Center
Mon 01:26:37 PM 50.9667 -111.2167 90° East 320 368 25,000  Level Edmonton Center
Mon 01:27:54 PM 50.9667 -111.0500 90° East 330 380 25,000  Level Winnipeg Center
Mon 01:28:54 PM 50.9667 -110.9167 90° East 330 380 25,000  Level Winnipeg Center
Mon 01:29:54 PM 50.9500 -110.7500 99° East 320 368 25,000  Level Winnipeg Center
Mon 01:30:54 PM 50.9500 -110.6167 90° East 320 368 25,000  Level Winnipeg Center
Mon 01:31:54 PM 50.9333 -110.4833 101° East 320 368 25,000  Level Winnipeg Center
Mon 01:32:54 PM 50.9333 -110.3500 90° East 320 368 25,000  Level Winnipeg Center
Mon 01:33:54 PM 50.9167 -110.1833 99° East 320 368 25,000  Level Winnipeg Center
Mon 01:34:37 PM 50.9000 -110.0833 105° East 310 357 25,000  Level Edmonton Center
Mon 01:35:37 PM 50.8833 -109.9333 100° East 310 357 25,000  Level Edmonton Center
Mon 01:36:54 PM 50.9000 -109.7667 81° East 320 368 25,000  Level Winnipeg Center
Mon 01:37:54 PM 50.9000 -109.6333 90° East 320 368 25,000  Level Winnipeg Center
Mon 01:38:54 PM 50.8667 -109.5000 112° Southeast 320 368 25,000  Level Winnipeg Center
Mon 01:39:54 PM 50.8667 -109.3667 90° East 320 368 25,000  Level Winnipeg Center
Mon 01:40:37 PM 50.8500 -109.2333 101° East 310 357 25,000  Level Edmonton Center
Mon 01:41:37 PM 50.8333 -109.0833 100° East 310 357 25,000  Level Edmonton Center
Mon 01:42:37 PM 50.8500 -108.9667 77° East 310 357 25,000  Level Edmonton Center
Mon 01:43:37 PM 50.8333 -108.8333 101° East 310 357 25,000  Level Edmonton Center
Mon 01:44:37 PM 50.8167 -108.6833 100° East 310 357 25,000  Level Edmonton Center
Mon 01:45:37 PM 50.8167 -108.5500 90° East 310 357 25,000  Level Edmonton Center
Mon 01:46:37 PM 50.8167 -108.4167 90° East 310 357 25,000  Level Edmonton Center
Mon 01:47:54 PM 50.8000 -108.2833 101° East 310 357 25,000  Level Winnipeg Center
Mon 01:48:54 PM 50.8000 -108.1500 90° East 310 357 25,000  Level Winnipeg Center
Mon 01:49:54 PM 50.7833 -108.0000 100° East 310 357 25,000  Level Winnipeg Center
Mon 01:50:54 PM 50.7667 -107.8667 101° East 310 357 25,000  Level Winnipeg Center
Mon 01:51:37 PM 50.7667 -107.7333 90° East 300 345 25,000  Level Edmonton Center
Mon 01:51:54 PM 50.7667 -107.7333 90° East 310 357 25,000  Level Winnipeg Center
Mon 01:52:54 PM 50.7667 -107.6000 90° East 310 357 25,000  Level Winnipeg Center
Mon 01:53:54 PM 50.7333 -107.4667 112° Southeast 310 357 25,000  Level Winnipeg Center
Mon 01:54:54 PM 50.7333 -107.3333 90° East 300 345 25,000  Level Winnipeg Center
Mon 01:55:54 PM 50.7333 -107.2000 90° East 310 357 25,000  Level Winnipeg Center
Mon 01:56:54 PM 50.7167 -107.0500 100° East 300 345 25,000  Level Winnipeg Center
Mon 01:57:54 PM 50.7000 -106.9167 101° East 300 345 25,000  Level Winnipeg Center
Mon 01:58:54 PM 50.7000 -106.7833 90° East 300 345 25,000  Level Winnipeg Center
Mon 01:59:54 PM 50.6833 -106.6500 101° East 300 345 25,000  Level Winnipeg Center
Mon 02:00:54 PM 50.6667 -106.5167 101° East 300 345 25,000  Level Winnipeg Center
Mon 02:01:54 PM 50.6667 -106.4167 90° East 300 345 25,000 -550 Level Winnipeg Center
Mon 02:02:54 PM 50.6500 -106.2667 100° East 310 357 23,900 -1,650 Descending Winnipeg Center
Mon 02:03:54 PM 50.6000 -106.1333 121° Southeast 340 391 21,700 -2,300 Descending Winnipeg Center
Mon 02:04:54 PM 50.6000 -106.0000 90° East 340 391 19,300 -2,000 Descending Winnipeg Center
Mon 02:05:54 PM 50.5667 -105.8333 107° East 330 380 17,700 -1,800 Descending Winnipeg Center
Mon 02:06:54 PM 50.5333 -105.7000 111° Southeast 340 391 15,700 -2,000 Descending Winnipeg Center
Mon 02:07:54 PM 50.5167 -105.5500 100° East 320 368 13,700 -1,900 Descending Winnipeg Center
Mon 02:08:54 PM 50.4833 -105.4167 111° Southeast 310 357 11,900 -1,900 Descending Winnipeg Center
Mon 02:09:54 PM 50.4667 -105.2833 101° East 310 357 9,900 -1,750 Descending Winnipeg Center
Mon 02:10:54 PM 50.4500 -105.2000 107° East 270 311 8,400 -1,450 Descending Winnipeg Center
Mon 02:11:54 PM 50.4333 -105.1000 105° East 250 288 7,000 -1,361 Descending Winnipeg Center
Mon 02:12:53 PM 50.4167 -105.0167 107° East 220 253 5,700 -1,210 Descending Winnipeg Center
Mon 02:13:53 PM 50.4000 -104.9333 107° East 190 219 4,600 -1,100 Descending Winnipeg Center

Login

Don't have an account? Register now (free) for customized features, flight alerts, and more!